Time;durP1;ratioP1;P1;durP2;ratioP2;P2;SDS_P1;SDS_P2;PMS_P1;PMS_P2;Temp;Humidity;BMP_temperature;BMP_pressure;BME280_temperature;BME280_humidity;BME280_pressure;Samples;Min_cycle;Max_cycle;Signal;HPM_P1;HPM_P2
2023/08/21 00:00:08;;;;;;;13.73;6.30;;;;;;;;;;5062512;28;20067;-83
2023/08/21 00:02:34;;;;;;;9.98;5.53;;;;;;;;;;5063772;28;20031;-84
2023/08/21 00:05:00;;;;;;;9.70;6.53;;;;;;;;;;5063084;28;20021;-83
2023/08/21 00:07:26;;;;;;;10.20;5.35;;;;;;;;;;5063630;28;20017;-83
2023/08/21 00:09:52;;;;;;;8.05;5.07;;;;;;;;;;5046031;28;20028;-83
2023/08/21 00:12:18;;;;;;;9.52;5.25;;;;;;;;;;5063091;28;20048;-83
2023/08/21 00:14:44;;;;;;;12.27;5.90;;;;;;;;;;5066300;28;20024;-83
2023/08/21 00:17:10;;;;;;;10.52;5.93;;;;;;;;;;5063405;28;20025;-83
2023/08/21 00:19:36;;;;;;;8.30;5.38;;;;;;;;;;5062981;28;20518;-83
2023/08/21 00:22:02;;;;;;;11.68;5.90;;;;;;;;;;5063252;28;20108;-83
2023/08/21 00:24:28;;;;;;;9.73;5.88;;;;;;;;;;5047479;28;20021;-83
2023/08/21 00:26:54;;;;;;;10.52;5.80;;;;;;;;;;5051786;28;20013;-84
2023/08/21 00:29:20;;;;;;;7.00;5.18;;;;;;;;;;5062911;28;20028;-83
2023/08/21 00:31:46;;;;;;;10.00;6.15;;;;;;;;;;5061172;28;20024;-83
2023/08/21 00:34:12;;;;;;;9.02;5.82;;;;;;;;;;5045673;28;20028;-84
2023/08/21 00:36:38;;;;;;;7.47;5.28;;;;;;;;;;5063003;28;20385;-83
2023/08/21 00:39:04;;;;;;;7.03;5.80;;;;;;;;;;5045016;28;20032;-84
2023/08/21 00:41:31;;;;;;;8.60;5.10;;;;;;;;;;5062571;28;20098;-83
2023/08/21 00:43:57;;;;;;;15.38;6.75;;;;;;;;;;5044871;28;20107;-85
2023/08/21 00:46:23;;;;;;;10.00;5.70;;;;;;;;;;5063178;28;20055;-83
2023/08/21 00:48:49;;;;;;;8.48;5.97;;;;;;;;;;5062506;28;20082;-83
2023/08/21 00:51:16;;;;;;;8.70;5.63;;;;;;;;;;5046582;28;20024;-83
2023/08/21 00:53:42;;;;;;;17.25;5.45;;;;;;;;;;5063269;28;20032;-83
2023/08/21 00:56:08;;;;;;;13.93;6.30;;;;;;;;;;5045326;28;20074;-84
2023/08/21 00:58:34;;;;;;;8.90;5.70;;;;;;;;;;5049254;28;20083;-84
2023/08/21 01:01:00;;;;;;;13.50;5.80;;;;;;;;;;5048260;28;20469;-83
2023/08/21 01:03:26;;;;;;;9.75;6.13;;;;;;;;;;5067429;28;20082;-83
2023/08/21 01:05:52;;;;;;;8.25;5.78;;;;;;;;;;5048263;28;20021;-83
2023/08/21 01:08:19;;;;;;;12.02;6.00;;;;;;;;;;5067242;28;20453;-83
2023/08/21 01:10:53;;;;;;;12.55;5.82;;;;;;;;;;5066002;28;20048;-84
2023/08/21 01:13:31;;;;;;;8.68;5.40;;;;;;;;;;5068268;28;20023;-83
2023/08/21 01:15:57;;;;;;;10.70;5.32;;;;;;;;;;5050745;28;20385;-83
2023/08/21 01:18:24;;;;;;;13.68;5.63;;;;;;;;;;5066000;28;20059;-83
2023/08/21 01:20:51;;;;;;;19.33;5.40;;;;;;;;;;5066482;28;20031;-83
2023/08/21 01:23:37;;;;;;;11.45;6.72;;;;;;;;;;5066804;28;20021;-83
2023/08/21 01:26:04;;;;;;;12.43;5.82;;;;;;;;;;5065281;28;20031;-83
2023/08/21 01:28:31;;;;;;;13.70;6.28;;;;;;;;;;5049432;28;20025;-83
2023/08/21 01:31:21;;;;;;;8.77;5.45;;;;;;;;;;5047351;28;20021;-83
2023/08/21 01:33:48;;;;;;;8.90;5.78;;;;;;;;;;5053974;28;20029;-83
2023/08/21 01:36:15;;;;;;;11.18;6.72;;;;;;;;;;5046902;28;20036;-83
2023/08/21 01:38:42;;;;;;;10.85;5.82;;;;;;;;;;5067197;28;20028;-83
2023/08/21 01:41:08;;;;;;;14.85;6.43;;;;;;;;;;5046715;28;20021;-84
2023/08/21 01:43:34;;;;;;;12.85;5.95;;;;;;;;;;5047139;28;20029;-83
2023/08/21 01:46:05;;;;;;;10.77;5.60;;;;;;;;;;5067504;28;20032;-83
2023/08/21 01:48:31;;;;;;;10.93;5.70;;;;;;;;;;5065403;28;20029;-83
2023/08/21 01:50:57;;;;;;;10.35;5.75;;;;;;;;;;5066045;28;20044;-83
2023/08/21 01:53:23;;;;;;;6.15;5.32;;;;;;;;;;5049902;28;20456;-83
2023/08/21 01:55:49;;;;;;;8.20;5.50;;;;;;;;;;5047921;28;20372;-83
2023/08/21 01:58:15;;;;;;;9.48;5.93;;;;;;;;;;5046880;28;20033;-83
2023/08/21 02:00:41;;;;;;;9.32;5.97;;;;;;;;;;5047798;28;20032;-83
2023/08/21 02:03:07;;;;;;;9.85;6.47;;;;;;;;;;5065301;28;20029;-83
2023/08/21 02:05:38;;;;;;;13.95;5.63;;;;;;;;;;5065945;28;20021;-83
2023/08/21 02:08:04;;;;;;;10.02;6.43;;;;;;;;;;5063478;28;20040;-82
2023/08/21 02:10:30;;;;;;;7.88;5.53;;;;;;;;;;5065708;28;20029;-83
2023/08/21 02:12:56;;;;;;;12.10;6.30;;;;;;;;;;5067282;28;20044;-83
2023/08/21 02:15:23;;;;;;;9.95;6.18;;;;;;;;;;5048746;28;20025;-83
2023/08/21 02:17:49;;;;;;;13.82;6.22;;;;;;;;;;5063497;28;20083;-83
2023/08/21 02:20:15;;;;;;;13.55;6.60;;;;;;;;;;5046673;28;20028;-83
2023/08/21 02:22:41;;;;;;;10.35;5.90;;;;;;;;;;5065842;28;20121;-83
2023/08/21 02:25:07;;;;;;;13.73;6.10;;;;;;;;;;5064686;28;20505;-83
2023/08/21 02:27:33;;;;;;;9.15;5.90;;;;;;;;;;5066274;28;20048;-83
2023/08/21 02:29:59;;;;;;;10.32;5.95;;;;;;;;;;5045847;28;20059;-83
2023/08/21 02:32:25;;;;;;;14.40;6.25;;;;;;;;;;5047881;28;20123;-82
2023/08/21 02:34:51;;;;;;;7.22;5.80;;;;;;;;;;5064389;28;20025;-83
2023/08/21 02:37:17;;;;;;;15.00;5.70;;;;;;;;;;5067360;28;20033;-82
2023/08/21 02:39:43;;;;;;;10.27;6.10;;;;;;;;;;5065838;28;20070;-83
2023/08/21 02:42:09;;;;;;;9.88;6.43;;;;;;;;;;5063945;28;20021;-83
2023/08/21 02:44:35;;;;;;;12.05;6.82;;;;;;;;;;5066684;28;20029;-83
2023/08/21 02:47:01;;;;;;;10.55;5.93;;;;;;;;;;5065968;28;20476;-84
2023/08/21 02:49:27;;;;;;;13.40;6.22;;;;;;;;;;5063767;28;20033;-83
2023/08/21 02:51:53;;;;;;;13.35;5.88;;;;;;;;;;5047470;28;20620;-83
2023/08/21 02:54:19;;;;;;;9.20;5.65;;;;;;;;;;5063824;28;20104;-83
2023/08/21 02:56:45;;;;;;;15.32;6.28;;;;;;;;;;5066651;28;20404;-83
2023/08/21 02:59:11;;;;;;;10.85;6.10;;;;;;;;;;5065672;28;20016;-83
2023/08/21 03:01:37;;;;;;;9.75;6.45;;;;;;;;;;5045834;28;20025;-83
2023/08/21 03:04:03;;;;;;;10.35;6.72;;;;;;;;;;5047381;28;20070;-82
2023/08/21 03:06:29;;;;;;;11.25;5.80;;;;;;;;;;5045355;28;20135;-83
2023/08/21 03:08:55;;;;;;;10.40;6.15;;;;;;;;;;5065471;28;20035;-83
2023/08/21 03:11:21;;;;;;;11.88;6.00;;;;;;;;;;5063096;28;20469;-83
2023/08/21 03:13:47;;;;;;;12.50;6.20;;;;;;;;;;5047260;28;20075;-83
2023/08/21 03:16:13;;;;;;;11.23;6.30;;;;;;;;;;5048289;28;20029;-83
2023/08/21 03:18:54;;;;;;;8.57;6.13;;;;;;;;;;5062621;28;20025;-83
2023/08/21 03:21:20;;;;;;;14.10;6.38;;;;;;;;;;5053510;28;20024;-83
2023/08/21 03:23:46;;;;;;;12.13;6.20;;;;;;;;;;5065116;28;20082;-83
2023/08/21 03:26:12;;;;;;;10.52;6.53;;;;;;;;;;5063269;28;20022;-83
2023/08/21 03:28:38;;;;;;;10.55;6.38;;;;;;;;;;5047223;28;20476;-83
2023/08/21 03:31:04;;;;;;;8.90;6.20;;;;;;;;;;5045267;28;20029;-83
2023/08/21 03:33:30;;;;;;;13.68;5.80;;;;;;;;;;5064108;28;20096;-83
2023/08/21 03:35:56;;;;;;;9.80;6.10;;;;;;;;;;5064608;28;20462;-83
2023/08/21 03:38:22;;;;;;;11.43;6.60;;;;;;;;;;5062081;28;20074;-83
2023/08/21 03:40:48;;;;;;;10.00;6.38;;;;;;;;;;5045253;28;20072;-83
2023/08/21 03:43:14;;;;;;;11.13;6.28;;;;;;;;;;5047854;28;20113;-83
2023/08/21 03:45:40;;;;;;;8.50;6.07;;;;;;;;;;5064494;28;20060;-82
2023/08/21 03:48:06;;;;;;;13.77;6.72;;;;;;;;;;5062993;28;20025;-83
2023/08/21 03:50:32;;;;;;;18.83;7.15;;;;;;;;;;5064274;28;20070;-83
2023/08/21 03:52:58;;;;;;;8.32;5.97;;;;;;;;;;5062897;28;20049;-83
2023/08/21 03:55:23;;;;;;;13.63;6.57;;;;;;;;;;5063809;28;20024;-82
2023/08/21 03:57:49;;;;;;;15.80;6.72;;;;;;;;;;5064665;28;20090;-82
2023/08/21 04:00:16;;;;;;;12.88;6.20;;;;;;;;;;5049659;28;20119;-83
2023/08/21 04:02:42;;;;;;;15.80;5.55;;;;;;;;;;5065669;28;20052;-83
2023/08/21 04:05:08;;;;;;;11.60;6.28;;;;;;;;;;5062314;28;20460;-83
2023/08/21 04:07:34;;;;;;;10.93;6.93;;;;;;;;;;5063290;28;20461;-82
2023/08/21 04:10:00;;;;;;;9.18;6.15;;;;;;;;;;5060746;28;20543;-84
2023/08/21 04:12:26;;;;;;;12.73;6.80;;;;;;;;;;5061625;28;20029;-83
2023/08/21 04:14:52;;;;;;;12.07;5.80;;;;;;;;;;5063170;28;20051;-84
2023/08/21 04:17:22;;;;;;;13.23;6.22;;;;;;;;;;5062429;28;20118;-84
2023/08/21 04:19:48;;;;;;;10.02;6.68;;;;;;;;;;5061070;28;20473;-84
2023/08/21 04:22:14;;;;;;;12.43;6.10;;;;;;;;;;5063413;28;20032;-84
2023/08/21 04:24:41;;;;;;;7.47;5.72;;;;;;;;;;5062943;28;20044;-83
2023/08/21 04:27:07;;;;;;;10.30;6.50;;;;;;;;;;5061457;28;20028;-83
2023/08/21 04:29:33;;;;;;;12.23;6.00;;;;;;;;;;5053243;28;20035;-85
2023/08/21 04:31:59;;;;;;;10.02;6.60;;;;;;;;;;5046058;28;20029;-83
2023/08/21 04:34:25;;;;;;;11.23;5.63;;;;;;;;;;5044217;28;20230;-84
2023/08/21 04:36:52;;;;;;;10.63;6.35;;;;;;;;;;5044674;28;20391;-83
2023/08/21 04:39:18;;;;;;;12.90;6.22;;;;;;;;;;5047074;28;20016;-83
2023/08/21 04:41:44;;;;;;;10.27;6.63;;;;;;;;;;5044227;28;20484;-83
2023/08/21 04:44:10;;;;;;;16.45;6.82;;;;;;;;;;5045639;28;20075;-83
2023/08/21 04:46:36;;;;;;;9.25;6.10;;;;;;;;;;5064451;28;20046;-84
2023/08/21 04:49:02;;;;;;;16.15;6.63;;;;;;;;;;5061104;28;20028;-83
2023/08/21 04:51:28;;;;;;;11.60;6.60;;;;;;;;;;5057383;28;20040;-83
2023/08/21 04:53:54;;;;;;;7.68;5.93;;;;;;;;;;5054510;28;20515;-83
2023/08/21 04:56:20;;;;;;;16.30;7.15;;;;;;;;;;5059845;28;20056;-83
2023/08/21 04:58:46;;;;;;;12.05;6.85;;;;;;;;;;5059214;28;20493;-83
2023/08/21 05:01:12;;;;;;;16.20;6.97;;;;;;;;;;5040483;28;20059;-83
2023/08/21 05:03:38;;;;;;;14.73;7.00;;;;;;;;;;5059362;28;20033;-83
2023/08/21 05:06:04;;;;;;;8.13;5.80;;;;;;;;;;5035288;28;20112;-83
2023/08/21 05:08:30;;;;;;;11.00;6.70;;;;;;;;;;5048681;28;20021;-83
2023/08/21 05:10:56;;;;;;;10.07;6.93;;;;;;;;;;5062260;28;20048;-83
2023/08/21 05:13:22;;;;;;;10.25;6.38;;;;;;;;;;5055037;28;20020;-83
2023/08/21 05:15:53;;;;;;;12.65;6.03;;;;;;;;;;5043686;28;20112;-83
2023/08/21 05:18:19;;;;;;;11.13;6.88;;;;;;;;;;5061774;28;20012;-83
2023/08/21 05:20:45;;;;;;;11.50;7.47;;;;;;;;;;5058016;28;20504;-83
2023/08/21 05:23:11;;;;;;;9.30;6.35;;;;;;;;;;5057583;28;20670;-84
2023/08/21 05:25:37;;;;;;;9.02;6.25;;;;;;;;;;5055003;28;20017;-84
2023/08/21 05:28:03;;;;;;;14.85;7.38;;;;;;;;;;5052185;28;20048;-84
2023/08/21 05:30:29;;;;;;;13.82;6.85;;;;;;;;;;5063921;28;20385;-83
2023/08/21 05:32:55;;;;;;;9.45;6.63;;;;;;;;;;5061768;28;20029;-83
2023/08/21 05:35:21;;;;;;;9.63;6.22;;;;;;;;;;5057272;28;20100;-84
2023/08/21 05:37:47;;;;;;;16.30;6.72;;;;;;;;;;5061634;28;20012;-84
2023/08/21 05:40:13;;;;;;;12.20;6.20;;;;;;;;;;5057238;28;20420;-84
2023/08/21 05:42:39;;;;;;;16.08;7.25;;;;;;;;;;5060892;28;20095;-84
2023/08/21 05:45:06;;;;;;;16.73;7.10;;;;;;;;;;5063250;28;20413;-83
2023/08/21 05:47:32;;;;;;;17.23;7.80;;;;;;;;;;5047009;28;20036;-84
2023/08/21 05:49:58;;;;;;;11.52;7.90;;;;;;;;;;5064458;28;20409;-84
2023/08/21 05:52:24;;;;;;;11.60;6.95;;;;;;;;;;5046365;28;20091;-83
2023/08/21 05:54:50;;;;;;;15.40;7.07;;;;;;;;;;5058372;28;20021;-83
2023/08/21 05:57:16;;;;;;;11.88;6.75;;;;;;;;;;5059585;28;20473;-83
2023/08/21 05:59:45;;;;;;;13.75;6.50;;;;;;;;;;5059381;28;20071;-84
2023/08/21 06:02:12;;;;;;;12.55;6.60;;;;;;;;;;5061343;28;20377;-83
2023/08/21 06:04:38;;;;;;;13.23;6.38;;;;;;;;;;5066380;28;20491;-83
2023/08/21 06:07:04;;;;;;;13.73;7.03;;;;;;;;;;5051854;28;20033;-83
2023/08/21 06:09:31;;;;;;;11.45;6.85;;;;;;;;;;5055361;28;20444;-84
2023/08/21 06:11:57;;;;;;;14.85;6.47;;;;;;;;;;5062669;28;20032;-83
2023/08/21 06:14:28;;;;;;;8.57;5.90;;;;;;;;;;5056056;28;20112;-83
2023/08/21 06:16:55;;;;;;;10.77;6.18;;;;;;;;;;5059816;28;20017;-83
2023/08/21 06:19:21;;;;;;;7.72;5.95;;;;;;;;;;5062080;28;20033;-84
2023/08/21 06:21:47;;;;;;;14.02;6.80;;;;;;;;;;5067875;28;20032;-84
2023/08/21 06:24:12;;;;;;;10.55;7.18;;;;;;;;;;5058808;28;20033;-83
2023/08/21 06:26:42;;;;;;;12.40;7.18;;;;;;;;;;5060691;28;20542;-83
2023/08/21 06:29:08;;;;;;;9.77;6.53;;;;;;;;;;5054112;28;20118;-83
2023/08/21 06:31:34;;;;;;;14.38;6.90;;;;;;;;;;5062539;28;20037;-83
2023/08/21 06:34:00;;;;;;;13.88;6.40;;;;;;;;;;5059379;28;20702;-83
2023/08/21 06:36:26;;;;;;;10.00;6.28;;;;;;;;;;5058440;28;20035;-83
2023/08/21 06:38:52;;;;;;;14.07;7.22;;;;;;;;;;5062840;28;20021;-83
2023/08/21 06:41:18;;;;;;;13.70;6.40;;;;;;;;;;5061948;28;20072;-86
2023/08/21 06:43:44;;;;;;;10.27;6.40;;;;;;;;;;5047407;28;20025;-86
2023/08/21 06:46:10;;;;;;;8.95;6.53;;;;;;;;;;5064035;28;20054;-82
2023/08/21 06:48:38;;;;;;;16.85;6.97;;;;;;;;;;5056900;28;20068;-89
2023/08/21 06:51:04;;;;;;;9.65;6.40;;;;;;;;;;5058209;28;20501;-87
2023/08/21 06:53:30;;;;;;;13.52;6.70;;;;;;;;;;5068450;28;20053;-89
2023/08/21 06:55:56;;;;;;;11.05;6.55;;;;;;;;;;5059938;28;20033;-86
2023/08/21 06:58:23;;;;;;;13.63;5.88;;;;;;;;;;5059273;28;20021;-84
2023/08/21 07:00:49;;;;;;;10.65;6.25;;;;;;;;;;5062756;28;20024;-89
2023/08/21 07:03:15;;;;;;;17.10;7.03;;;;;;;;;;5056532;28;20033;-90
2023/08/21 07:05:41;;;;;;;10.57;6.47;;;;;;;;;;5062555;28;20052;-90
2023/08/21 07:08:07;;;;;;;13.35;6.60;;;;;;;;;;5063515;28;20055;-89
2023/08/21 07:10:37;;;;;;;13.23;6.85;;;;;;;;;;5059357;28;20025;-88
2023/08/21 07:13:03;;;;;;;11.02;6.32;;;;;;;;;;5043843;28;20065;-88
2023/08/21 07:15:29;;;;;;;18.08;6.63;;;;;;;;;;5062353;28;20523;-88
2023/08/21 07:17:55;;;;;;;14.60;6.93;;;;;;;;;;5061355;28;20029;-88
2023/08/21 07:20:22;;;;;;;13.90;7.78;;;;;;;;;;5063291;28;20040;-88
2023/08/21 07:22:48;;;;;;;13.65;7.22;;;;;;;;;;5062788;28;20013;-87
2023/08/21 07:25:15;;;;;;;9.93;5.97;;;;;;;;;;5060594;28;20021;-88
2023/08/21 07:27:41;;;;;;;10.60;7.57;;;;;;;;;;5066435;28;20024;-87
2023/08/21 07:30:07;;;;;;;11.38;7.03;;;;;;;;;;5060443;28;20036;-86
2023/08/21 07:32:33;;;;;;;13.30;7.22;;;;;;;;;;5049360;28;20040;-88
2023/08/21 07:34:59;;;;;;;13.02;7.65;;;;;;;;;;5061261;28;20017;-86
2023/08/21 07:37:25;;;;;;;14.02;7.07;;;;;;;;;;5056792;28;20036;-89
2023/08/21 07:39:51;;;;;;;15.68;7.22;;;;;;;;;;5060573;28;20031;-89
2023/08/21 07:42:17;;;;;;;17.17;7.72;;;;;;;;;;5062876;28;20407;-89
2023/08/21 07:44:46;;;;;;;18.25;7.00;;;;;;;;;;5056975;28;20023;-90
2023/08/21 07:47:12;;;;;;;12.85;6.60;;;;;;;;;;5061259;28;20602;-87
2023/08/21 07:49:38;;;;;;;14.48;7.22;;;;;;;;;;5060288;28;20027;-90
2023/08/21 07:52:04;;;;;;;14.93;7.80;;;;;;;;;;5057685;28;20045;-89
2023/08/21 07:54:30;;;;;;;10.05;6.80;;;;;;;;;;5065328;28;20025;-88
2023/08/21 07:56:56;;;;;;;14.30;7.47;;;;;;;;;;5063510;28;20481;-89
2023/08/21 07:59:22;;;;;;;13.05;7.28;;;;;;;;;;5064593;28;20020;-92
2023/08/21 08:01:48;;;;;;;11.65;7.30;;;;;;;;;;5064571;28;20138;-88
2023/08/21 08:04:15;;;;;;;13.77;7.22;;;;;;;;;;5047384;28;20040;-89
2023/08/21 08:06:41;;;;;;;11.55;7.00;;;;;;;;;;5062442;28;20024;-91
2023/08/21 08:09:07;;;;;;;10.95;6.82;;;;;;;;;;5046324;28;20025;-89
2023/08/21 08:11:33;;;;;;;10.80;6.78;;;;;;;;;;5042908;28;20052;-89
2023/08/21 08:13:59;;;;;;;13.93;6.50;;;;;;;;;;5067177;28;20150;-89
2023/08/21 08:16:25;;;;;;;10.43;6.90;;;;;;;;;;5061299;28;20029;-87
2023/08/21 08:18:51;;;;;;;11.93;6.70;;;;;;;;;;5055725;28;20028;-91
2023/08/21 08:21:17;;;;;;;9.95;6.45;;;;;;;;;;5042134;28;20065;-89
2023/08/21 08:23:43;;;;;;;15.20;6.45;;;;;;;;;;5051192;28;20021;-92
2023/08/21 08:26:09;;;;;;;11.63;6.20;;;;;;;;;;5050908;28;20064;-90
2023/08/21 08:28:35;;;;;;;17.10;6.78;;;;;;;;;;5065440;28;20035;-91
2023/08/21 08:31:01;;;;;;;13.60;6.47;;;;;;;;;;5062974;28;20044;-93
2023/08/21 08:33:27;;;;;;;11.63;6.88;;;;;;;;;;5054612;28;20017;-87
2023/08/21 08:35:53;;;;;;;8.73;6.38;;;;;;;;;;5065657;28;21098;-89
2023/08/21 08:38:19;;;;;;;14.70;6.68;;;;;;;;;;5058460;28;20051;-91
2023/08/21 08:40:46;;;;;;;12.65;7.07;;;;;;;;;;5059993;28;20028;-90
2023/08/21 08:43:14;;;;;;;9.95;6.43;;;;;;;;;;5064638;28;20093;-92
2023/08/21 08:45:40;;;;;;;9.98;6.63;;;;;;;;;;5045852;28;20047;-88
2023/08/21 08:48:07;;;;;;;15.40;6.60;;;;;;;;;;5060321;28;20110;-91
2023/08/21 08:50:33;;;;;;;12.90;6.57;;;;;;;;;;5064959;28;20036;-89
2023/08/21 08:53:00;;;;;;;19.15;7.03;;;;;;;;;;5041565;28;20028;-92
2023/08/21 08:55:26;;;;;;;15.38;7.18;;;;;;;;;;5060648;28;20028;-90
2023/08/21 08:57:53;;;;;;;9.02;6.53;;;;;;;;;;5063046;28;20055;-92
2023/08/21 09:00:20;;;;;;;9.40;6.82;;;;;;;;;;5059745;28;20028;-86
2023/08/21 09:02:45;;;;;;;15.63;6.75;;;;;;;;;;5051321;28;20406;-91
2023/08/21 09:05:12;;;;;;;11.23;6.53;;;;;;;;;;5045706;28;20057;-92
2023/08/21 09:07:38;;;;;;;15.63;6.47;;;;;;;;;;5057875;28;20095;-92
2023/08/21 09:10:04;;;;;;;12.32;7.00;;;;;;;;;;5050098;28;20036;-91
2023/08/21 09:12:32;;;;;;;13.23;6.65;;;;;;;;;;5060296;28;20104;-93
2023/08/21 09:14:59;;;;;;;21.83;7.22;;;;;;;;;;5061742;28;20051;-91
2023/08/21 09:17:26;;;;;;;16.83;6.57;;;;;;;;;;5061160;28;20469;-92
2023/08/21 09:19:52;;;;;;;11.88;7.68;;;;;;;;;;5072194;28;20063;-91
2023/08/21 09:22:19;;;;;;;15.07;7.35;;;;;;;;;;5068983;28;20025;-89
2023/08/21 09:25:04;;;;;;;12.43;6.22;;;;;;;;;;5048416;28;20469;-92
2023/08/21 09:27:31;;;;;;;9.80;6.53;;;;;;;;;;5056118;28;20050;-90
2023/08/21 09:29:58;;;;;;;11.40;7.28;;;;;;;;;;5068481;28;20715;-92
2023/08/21 09:32:25;;;;;;;13.95;7.05;;;;;;;;;;5067149;28;20032;-91
2023/08/21 09:34:51;;;;;;;14.95;7.18;;;;;;;;;;5060761;28;20520;-93
2023/08/21 09:37:17;;;;;;;13.13;7.40;;;;;;;;;;5068071;28;20052;-90
2023/08/21 09:39:44;;;;;;;10.07;5.78;;;;;;;;;;5050789;28;20013;-94
2023/08/21 09:42:11;;;;;;;16.02;7.60;;;;;;;;;;5048165;28;20094;-91
2023/08/21 09:44:38;;;;;;;14.85;7.72;;;;;;;;;;5052888;28;20020;-90
2023/08/21 09:47:05;;;;;;;14.98;6.78;;;;;;;;;;5065337;28;20041;-89
2023/08/21 09:49:31;;;;;;;23.65;7.05;;;;;;;;;;5052402;28;20455;-89
2023/08/21 09:51:58;;;;;;;12.80;6.57;;;;;;;;;;5072513;28;20803;-90
2023/08/21 09:54:27;;;;;;;10.38;6.25;;;;;;;;;;5050635;28;20400;-87
2023/08/21 09:56:53;;;;;;;17.55;7.65;;;;;;;;;;5069991;28;20108;-94
2023/08/21 09:59:19;;;;;;;15.02;6.68;;;;;;;;;;5052726;28;20024;-93
2023/08/21 10:01:45;;;;;;;12.38;5.80;;;;;;;;;;5060520;28;20544;-91
2023/08/21 10:04:12;;;;;;;12.50;6.90;;;;;;;;;;5049656;28;20031;-90
2023/08/21 10:06:39;;;;;;;12.45;7.55;;;;;;;;;;5068534;28;20031;-89
2023/08/21 10:09:05;;;;;;;14.40;7.50;;;;;;;;;;5046016;28;20108;-86
2023/08/21 10:11:31;;;;;;;10.27;6.28;;;;;;;;;;5044977;28;20460;-92
2023/08/21 10:13:57;;;;;;;14.63;6.80;;;;;;;;;;5066222;28;20025;-90
2023/08/21 10:16:23;;;;;;;10.15;7.00;;;;;;;;;;5042695;28;20032;-90
2023/08/21 10:18:49;;;;;;;14.63;7.20;;;;;;;;;;5065497;28;20025;-90
2023/08/21 10:21:15;;;;;;;9.82;7.07;;;;;;;;;;5064462;28;20033;-92
2023/08/21 10:23:42;;;;;;;11.38;7.40;;;;;;;;;;5059555;28;20135;-91
2023/08/21 10:26:10;;;;;;;16.30;7.13;;;;;;;;;;5067996;28;20020;-90
2023/08/21 10:28:52;;;;;;;13.02;6.95;;;;;;;;;;5065981;28;20491;-90
2023/08/21 10:31:38;;;;;;;15.13;6.45;;;;;;;;;;5070404;28;20130;-87
2023/08/21 10:34:08;;;;;;;12.50;6.25;;;;;;;;;;5064718;28;20025;-90
2023/08/21 10:37:00;;;;;;;11.25;6.93;;;;;;;;;;5060826;28;20024;-91
2023/08/21 10:39:27;;;;;;;12.65;7.43;;;;;;;;;;5067395;28;20028;-95
2023/08/21 10:41:57;;;;;;;11.00;6.60;;;;;;;;;;5061752;28;20095;-89
2023/08/21 10:44:41;;;;;;;15.15;6.90;;;;;;;;;;5058665;28;20030;-92
2023/08/21 10:47:20;;;;;;;16.05;7.30;;;;;;;;;;5062000;28;20100;-90
2023/08/21 10:49:53;;;;;;;13.35;6.30;;;;;;;;;;5059943;28;20094;-91
2023/08/21 10:52:27;;;;;;;10.93;6.32;;;;;;;;;;5064652;28;20492;-93
2023/08/21 10:54:57;;;;;;;9.50;5.97;;;;;;;;;;5053820;28;20017;-90
2023/08/21 10:57:24;;;;;;;16.08;7.22;;;;;;;;;;5044992;28;20040;-89
2023/08/21 10:59:54;;;;;;;11.57;6.00;;;;;;;;;;5062447;28;20028;-88
2023/08/21 11:02:21;;;;;;;10.30;6.43;;;;;;;;;;5059543;28;20035;-91
2023/08/21 11:04:47;;;;;;;11.32;5.72;;;;;;;;;;5059897;28;20017;-91
2023/08/21 11:07:13;;;;;;;6.25;4.93;;;;;;;;;;5063005;28;20635;-91
2023/08/21 11:09:39;;;;;;;9.25;5.88;;;;;;;;;;5043220;28;20484;-89
2023/08/21 11:12:11;;;;;;;13.60;6.28;;;;;;;;;;5065020;28;20040;-87
2023/08/21 11:14:38;;;;;;;10.55;6.45;;;;;;;;;;5045036;28;20112;-89
2023/08/21 11:17:04;;;;;;;11.93;7.00;;;;;;;;;;5061739;28;20488;-92
2023/08/21 11:19:31;;;;;;;13.10;5.47;;;;;;;;;;5067657;28;20028;-89
2023/08/21 11:21:59;;;;;;;12.98;5.63;;;;;;;;;;5061244;28;20048;-91
2023/08/21 11:24:30;;;;;;;9.55;5.88;;;;;;;;;;5058093;28;20020;-88
2023/08/21 11:26:55;;;;;;;12.68;5.85;;;;;;;;;;5067874;28;20090;-89
2023/08/21 11:29:21;;;;;;;16.13;6.65;;;;;;;;;;5067487;28;20816;-89
2023/08/21 11:31:47;;;;;;;12.73;6.32;;;;;;;;;;5057450;28;20094;-93
2023/08/21 11:34:19;;;;;;;16.75;6.90;;;;;;;;;;5065147;28;20033;-91
2023/08/21 11:36:45;;;;;;;11.63;6.90;;;;;;;;;;5036405;28;20388;-94
2023/08/21 11:39:11;;;;;;;10.73;6.32;;;;;;;;;;5058630;28;20025;-91
2023/08/21 11:41:56;;;;;;;13.60;5.70;;;;;;;;;;5064290;28;20008;-92
2023/08/21 11:44:22;;;;;;;10.57;5.60;;;;;;;;;;5060976;28;20021;-92
2023/08/21 11:46:51;;;;;;;7.30;5.50;;;;;;;;;;5037414;28;20028;-91
2023/08/21 11:49:18;;;;;;;9.63;5.68;;;;;;;;;;5063920;28;20104;-87
2023/08/21 11:51:45;;;;;;;9.00;5.55;;;;;;;;;;5055482;28;20029;-91
2023/08/21 11:54:11;;;;;;;14.38;5.72;;;;;;;;;;5067364;28;20036;-88
2023/08/21 11:56:39;;;;;;;9.57;6.30;;;;;;;;;;5062821;28;20029;-91
2023/08/21 11:59:05;;;;;;;6.97;5.45;;;;;;;;;;5063812;28;20024;-90
2023/08/21 12:01:34;;;;;;;10.20;6.28;;;;;;;;;;5061444;28;20023;-95
2023/08/21 12:04:00;;;;;;;8.98;5.60;;;;;;;;;;5048611;28;20024;-94
2023/08/21 12:06:28;;;;;;;8.45;5.45;;;;;;;;;;5055669;28;20482;-92
2023/08/21 12:08:55;;;;;;;13.38;6.28;;;;;;;;;;5063880;28;20021;-91
2023/08/21 12:11:21;;;;;;;12.68;6.07;;;;;;;;;;5058869;28;20028;-91
2023/08/21 12:13:47;;;;;;;8.52;5.90;;;;;;;;;;5045607;28;20436;-90
2023/08/21 12:16:13;;;;;;;10.85;6.47;;;;;;;;;;5065487;28;20061;-91
2023/08/21 12:18:39;;;;;;;12.05;6.18;;;;;;;;;;5062013;28;20099;-88
2023/08/21 12:21:07;;;;;;;25.27;5.78;;;;;;;;;;5064005;28;20060;-93
2023/08/21 12:23:33;;;;;;;11.25;6.15;;;;;;;;;;5062650;28;20029;-93
2023/08/21 12:26:00;;;;;;;11.18;6.22;;;;;;;;;;5063954;28;20083;-92
2023/08/21 12:28:26;;;;;;;9.80;5.15;;;;;;;;;;5065541;28;20028;-86
2023/08/21 12:30:52;;;;;;;12.73;6.60;;;;;;;;;;5061830;28;20032;-86
2023/08/21 12:33:18;;;;;;;8.40;5.60;;;;;;;;;;5045134;28;20040;-86
2023/08/21 12:35:44;;;;;;;9.82;5.95;;;;;;;;;;5044665;28;20055;-87
2023/08/21 12:38:13;;;;;;;10.48;6.03;;;;;;;;;;5048578;28;20427;-86
2023/08/21 12:40:40;;;;;;;10.68;5.63;;;;;;;;;;5035418;28;20484;-85
2023/08/21 12:43:06;;;;;;;20.95;5.63;;;;;;;;;;5062985;28;20029;-86
2023/08/21 12:45:32;;;;;;;16.02;5.85;;;;;;;;;;5052740;28;20029;-86
2023/08/21 12:47:58;;;;;;;18.25;5.82;;;;;;;;;;5045853;28;20028;-87
2023/08/21 12:50:24;;;;;;;10.07;5.70;;;;;;;;;;5065030;28;20029;-87
2023/08/21 12:52:50;;;;;;;10.05;6.15;;;;;;;;;;5068300;28;20029;-86
2023/08/21 12:55:16;;;;;;;10.30;5.70;;;;;;;;;;5064847;28;20028;-87
2023/08/21 12:57:42;;;;;;;6.80;5.05;;;;;;;;;;5052444;28;20027;-88
2023/08/21 13:00:08;;;;;;;12.32;5.95;;;;;;;;;;5057129;28;20023;-87
2023/08/21 13:02:34;;;;;;;5.63;4.93;;;;;;;;;;5052399;28;20024;-88
2023/08/21 13:05:00;;;;;;;9.23;5.43;;;;;;;;;;5048429;28;20047;-86
2023/08/21 13:07:26;;;;;;;14.55;5.97;;;;;;;;;;5056311;28;20442;-86
2023/08/21 13:09:52;;;;;;;10.43;6.13;;;;;;;;;;5044731;28;20461;-87
2023/08/21 13:12:18;;;;;;;8.48;5.80;;;;;;;;;;5050616;28;20040;-87
2023/08/21 13:14:46;;;;;;;9.77;5.72;;;;;;;;;;5043228;28;20025;-87
2023/08/21 13:17:12;;;;;;;9.55;6.38;;;;;;;;;;5055200;28;20062;-88
2023/08/21 13:19:38;;;;;;;10.35;6.20;;;;;;;;;;5062145;28;20049;-87
2023/08/21 13:22:04;;;;;;;8.95;5.97;;;;;;;;;;5051931;28;20020;-87
2023/08/21 13:24:30;;;;;;;12.43;5.55;;;;;;;;;;5051478;28;20472;-87
2023/08/21 13:26:56;;;;;;;14.07;5.90;;;;;;;;;;5049568;28;20021;-87
2023/08/21 13:29:23;;;;;;;9.93;5.63;;;;;;;;;;5050359;28;20017;-88
2023/08/21 13:31:49;;;;;;;12.23;5.68;;;;;;;;;;5050693;28;20186;-87
2023/08/21 13:34:15;;;;;;;10.35;5.80;;;;;;;;;;5047013;28;20031;-86
2023/08/21 13:36:41;;;;;;;12.07;5.80;;;;;;;;;;5052878;28;20553;-88
2023/08/21 13:39:08;;;;;;;13.52;6.05;;;;;;;;;;5049402;28;20388;-87
2023/08/21 13:41:34;;;;;;;6.97;5.68;;;;;;;;;;5054676;28;20424;-87
2023/08/21 13:44:00;;;;;;;10.27;5.97;;;;;;;;;;5046752;28;20078;-87
2023/08/21 13:46:26;;;;;;;13.15;6.88;;;;;;;;;;5052997;28;20024;-87
2023/08/21 13:48:52;;;;;;;12.80;5.90;;;;;;;;;;5070530;28;20021;-88
2023/08/21 13:51:18;;;;;;;11.88;6.40;;;;;;;;;;5049445;28;20480;-89
2023/08/21 13:53:44;;;;;;;12.15;6.20;;;;;;;;;;5047240;28;20032;-87
2023/08/21 13:56:10;;;;;;;9.13;5.75;;;;;;;;;;5052306;28;20108;-88
2023/08/21 13:58:36;;;;;;;11.80;6.07;;;;;;;;;;5046437;28;20025;-87
2023/08/21 14:01:03;;;;;;;11.32;5.85;;;;;;;;;;5045406;28;20544;-88
2023/08/21 14:03:29;;;;;;;12.77;6.15;;;;;;;;;;5047550;28;20021;-87
2023/08/21 14:05:55;;;;;;;13.82;6.32;;;;;;;;;;5047255;28;20074;-87
2023/08/21 14:08:21;;;;;;;11.50;6.10;;;;;;;;;;5066516;28;20020;-87
2023/08/21 14:10:47;;;;;;;14.60;6.70;;;;;;;;;;5048841;28;20603;-88
2023/08/21 14:13:13;;;;;;;11.95;6.10;;;;;;;;;;5048578;28;20116;-89
2023/08/21 14:15:39;;;;;;;7.85;5.70;;;;;;;;;;5046658;28;20074;-88
2023/08/21 14:18:05;;;;;;;11.07;6.65;;;;;;;;;;5048429;28;20392;-88
2023/08/21 14:20:31;;;;;;;10.65;5.75;;;;;;;;;;5050726;28;20103;-89
2023/08/21 14:22:57;;;;;;;12.35;6.20;;;;;;;;;;5052321;28;20072;-87
2023/08/21 14:25:23;;;;;;;14.52;5.95;;;;;;;;;;5049582;28;20021;-89
2023/08/21 14:27:49;;;;;;;11.80;6.35;;;;;;;;;;5051948;28;20020;-90
2023/08/21 14:30:15;;;;;;;8.18;5.50;;;;;;;;;;5041763;28;20040;-88